createdAt,value
2022-08-08T00:00:41.092Z,8.73
2022-08-08T00:02:03.134Z,9.18
2022-08-08T00:04:16.298Z,8.30
2022-08-08T00:06:35.167Z,8.55
2022-08-08T00:08:50.414Z,9.57
2022-08-08T00:11:01.033Z,8.85
2022-08-08T00:14:15.310Z,8.68
2022-08-08T00:15:58.200Z,8.75
2022-08-08T00:18:09.667Z,8.57
2022-08-08T00:20:18.466Z,9.38
2022-08-08T00:22:30.237Z,8.43
2022-08-08T00:24:41.764Z,9.27
2022-08-08T00:26:51.039Z,8.82
2022-08-08T00:29:02.899Z,8.70
2022-08-08T00:32:28.663Z,9.15
2022-08-08T00:34:18.166Z,9.05
2022-08-08T00:36:27.400Z,8.23
2022-08-08T00:38:54.680Z,8.05
2022-08-08T00:41:55.076Z,8.27
2022-08-08T00:44:37.669Z,8.73
2022-08-08T00:47:23.998Z,8.38
2022-08-08T00:50:14.703Z,8.23
2022-08-08T00:52:48.497Z,8.43
2022-08-08T00:55:53.429Z,8.77
2022-08-08T00:58:54.584Z,8.85
2022-08-08T01:01:19.712Z,8.60
2022-08-08T01:04:29.505Z,8.90
2022-08-08T01:07:08.361Z,8.30
2022-08-08T01:09:59.031Z,8.15
2022-08-08T01:12:49.681Z,8.90
2022-08-08T01:15:44.008Z,9.52
2022-08-08T01:18:25.292Z,8.95
2022-08-08T01:22:07.157Z,9.43
2022-08-08T01:24:30.994Z,8.93
2022-08-08T01:27:24.066Z,8.25
2022-08-08T01:30:18.855Z,8.48
2022-08-08T01:33:27.605Z,8.80
2022-08-08T01:36:14.725Z,8.63
2022-08-08T01:38:55.280Z,9.23
2022-08-08T01:41:09.930Z,9.23
2022-08-08T01:43:38.515Z,9.73
2022-08-08T01:45:58.562Z,8.75
2022-08-08T01:48:31.121Z,9.00
2022-08-08T01:50:59.358Z,9.18
2022-08-08T01:55:15.790Z,8.30
2022-08-08T01:56:29.968Z,8.85
2022-08-08T01:58:46.308Z,8.47
2022-08-08T02:01:17.996Z,9.80
2022-08-08T02:03:55.702Z,9.15
2022-08-08T02:06:31.877Z,9.13
2022-08-08T02:08:53.364Z,9.30
2022-08-08T02:11:23.797Z,9.40
2022-08-08T02:13:52.585Z,8.85
2022-08-08T02:16:20.808Z,8.45
2022-08-08T02:18:44.082Z,9.00
2022-08-08T02:21:18.280Z,9.65
2022-08-08T02:23:35.603Z,8.93
2022-08-08T02:25:47.201Z,9.30
2022-08-08T02:28:01.309Z,8.20
2022-08-08T02:30:20.684Z,8.38
2022-08-08T02:32:49.629Z,8.75
2022-08-08T02:35:19.399Z,8.50
2022-08-08T02:37:52.997Z,8.40
2022-08-08T02:40:12.023Z,8.40
2022-08-08T02:43:00.615Z,8.63
2022-08-08T02:45:57.796Z,8.93
2022-08-08T02:48:50.702Z,8.20
2022-08-08T02:51:46.557Z,8.98
2022-08-08T02:54:42.563Z,8.03
2022-08-08T02:57:44.340Z,8.95
2022-08-08T03:00:32.226Z,9.05
2022-08-08T03:03:46.351Z,9.18
2022-08-08T03:06:24.219Z,9.63
2022-08-08T03:09:21.051Z,9.18
2022-08-08T03:12:13.687Z,8.68
2022-08-08T03:16:00.544Z,7.85
2022-08-08T03:17:20.052Z,8.80
2022-08-08T03:20:03.799Z,8.00
2022-08-08T03:22:38.891Z,7.97
2022-08-08T03:24:35.970Z,8.50
2022-08-08T03:26:45.982Z,8.25
2022-08-08T03:28:57.872Z,8.10
2022-08-08T03:31:25.676Z,8.10
2022-08-08T03:33:55.699Z,8.88
2022-08-08T03:35:56.609Z,8.48
2022-08-08T03:38:54.813Z,8.60
2022-08-08T03:40:32.110Z,8.45
2022-08-08T03:42:47.568Z,7.95
2022-08-08T03:44:54.641Z,8.45
2022-08-08T03:46:59.810Z,8.95
2022-08-08T03:49:58.097Z,7.53
2022-08-08T03:51:50.754Z,8.55
2022-08-08T03:53:58.582Z,8.10
2022-08-08T03:56:09.637Z,8.50
2022-08-08T03:58:35.042Z,8.25
2022-08-08T04:01:02.212Z,7.88
2022-08-08T04:03:19.158Z,8.50
2022-08-08T04:05:49.728Z,7.90
2022-08-08T04:07:58.620Z,7.20
2022-08-08T04:10:08.452Z,8.52
2022-08-08T04:12:16.897Z,7.97
2022-08-08T04:14:34.332Z,8.27
2022-08-08T04:16:40.914Z,7.85
2022-08-08T04:18:48.978Z,7.65
2022-08-08T04:20:58.625Z,7.65
2022-08-08T04:23:03.737Z,7.82
2022-08-08T04:25:15.554Z,8.07
2022-08-08T04:30:01.168Z,7.95
2022-08-08T04:32:30.881Z,7.75
2022-08-08T04:34:55.353Z,7.95
2022-08-08T04:37:07.500Z,7.47
2022-08-08T04:40:03.784Z,7.93
2022-08-08T04:41:36.961Z,7.93
2022-08-08T04:43:46.254Z,7.00
2022-08-08T04:45:56.517Z,7.35
2022-08-08T04:48:02.513Z,8.18
2022-08-08T04:50:24.142Z,7.57
2022-08-08T04:54:52.054Z,8.00
2022-08-08T04:56:57.131Z,8.02
2022-08-08T04:59:02.700Z,8.00
2022-08-08T05:01:11.326Z,7.22
2022-08-08T05:04:07.893Z,7.65
2022-08-08T05:05:46.739Z,8.25
2022-08-08T05:07:59.092Z,8.38
2022-08-08T05:10:12.856Z,8.30
2022-08-08T05:12:20.486Z,7.90
2022-08-08T05:14:25.310Z,8.50
2022-08-08T05:16:51.606Z,7.90
2022-08-08T05:19:00.839Z,9.02
2022-08-08T05:21:06.048Z,7.75
2022-08-08T05:23:11.590Z,8.20
2022-08-08T05:25:18.061Z,8.32
2022-08-08T05:27:26.830Z,7.38
2022-08-08T05:29:37.880Z,6.95
2022-08-08T05:32:03.711Z,8.27
2022-08-08T05:34:19.123Z,7.85
2022-08-08T05:36:28.317Z,7.60
2022-08-08T05:38:38.092Z,7.93
2022-08-08T05:40:48.995Z,8.18
2022-08-08T05:43:01.481Z,7.57
2022-08-08T05:45:10.154Z,8.30
2022-08-08T05:47:52.638Z,7.38
2022-08-08T05:49:56.426Z,8.45
2022-08-08T05:52:04.563Z,8.30
2022-08-08T05:54:26.727Z,7.38
2022-08-08T05:56:42.414Z,9.20
2022-08-08T05:59:03.576Z,7.53
2022-08-08T06:01:14.619Z,7.97
2022-08-08T06:03:43.919Z,8.13
2022-08-08T06:06:01.351Z,7.88
2022-08-08T06:08:28.384Z,8.98
2022-08-08T06:10:42.488Z,8.70
2022-08-08T06:12:52.949Z,8.02
2022-08-08T06:14:58.462Z,8.48
2022-08-08T06:17:04.935Z,7.75
2022-08-08T06:19:25.132Z,7.88
2022-08-08T06:21:48.702Z,8.45
2022-08-08T06:24:03.594Z,7.85
2022-08-08T06:26:38.194Z,7.80
2022-08-08T06:28:47.593Z,7.80
2022-08-08T06:31:01.160Z,8.65
2022-08-08T06:33:11.956Z,7.75
2022-08-08T06:37:50.813Z,7.43
2022-08-08T06:39:58.623Z,7.88
2022-08-08T06:42:10.666Z,7.03
2022-08-08T06:44:25.603Z,7.80
2022-08-08T06:46:33.931Z,6.88
2022-08-08T06:48:42.437Z,7.15
2022-08-08T06:50:49.994Z,7.00
2022-08-08T06:52:57.773Z,7.30
2022-08-08T06:55:02.666Z,7.05
2022-08-08T06:57:12.020Z,7.07
2022-08-08T06:59:22.524Z,6.72
2022-08-08T07:02:17.100Z,7.50
2022-08-08T07:04:37.121Z,6.60
2022-08-08T07:06:35.291Z,6.78
2022-08-08T07:08:43.915Z,6.15
2022-08-08T07:10:52.980Z,6.57
2022-08-08T07:13:04.736Z,7.13
2022-08-08T07:15:32.546Z,6.68
2022-08-08T07:18:00.820Z,6.25
2022-08-08T07:20:11.391Z,6.90
2022-08-08T07:22:25.623Z,6.82
2022-08-08T07:24:35.675Z,6.18
2022-08-08T07:26:43.108Z,6.45
2022-08-08T07:28:52.827Z,6.63
2022-08-08T07:31:06.087Z,7.03
2022-08-08T07:33:17.388Z,6.25
2022-08-08T07:35:24.561Z,6.65
2022-08-08T07:37:56.129Z,5.45
2022-08-08T07:40:03.644Z,6.40
2022-08-08T07:42:12.994Z,5.97
2022-08-08T07:44:37.673Z,6.15
2022-08-08T07:46:45.966Z,6.57
2022-08-08T07:51:04.484Z,6.47
2022-08-08T07:53:52.231Z,6.60
2022-08-08T07:55:51.417Z,6.25
2022-08-08T07:58:05.709Z,5.78
2022-08-08T08:00:16.692Z,5.82
2022-08-08T08:02:44.379Z,6.50
2022-08-08T08:04:57.060Z,6.35
2022-08-08T08:07:03.842Z,6.20
2022-08-08T08:09:19.300Z,5.88
2022-08-08T08:11:38.283Z,6.28
2022-08-08T08:14:08.328Z,5.97
2022-08-08T08:16:23.911Z,6.20
2022-08-08T08:18:51.703Z,6.15
2022-08-08T08:20:57.584Z,5.78
2022-08-08T08:23:02.723Z,5.85
2022-08-08T08:25:09.451Z,6.20
2022-08-08T08:27:17.597Z,6.05
2022-08-08T08:29:27.843Z,6.05
2022-08-08T08:31:41.609Z,5.78
2022-08-08T08:33:50.661Z,6.00
2022-08-08T08:36:19.269Z,5.80
2022-08-08T08:38:21.417Z,5.63
2022-08-08T08:40:35.177Z,6.43
2022-08-08T08:42:42.043Z,6.97
2022-08-08T08:44:51.564Z,6.43
2022-08-08T08:46:58.887Z,6.93
2022-08-08T08:49:06.732Z,6.65
2022-08-08T08:51:15.831Z,5.75
2022-08-08T08:53:28.370Z,5.82
2022-08-08T08:55:51.268Z,6.45
2022-08-08T08:57:59.985Z,5.93
2022-08-08T09:00:14.727Z,6.90
2022-08-08T09:02:26.742Z,6.15
2022-08-08T09:04:44.537Z,5.70
2022-08-08T09:06:58.689Z,6.15
2022-08-08T09:09:18.771Z,6.70
2022-08-08T09:11:47.612Z,6.10
2022-08-08T09:14:04.524Z,6.25
2022-08-08T09:16:10.100Z,6.45
2022-08-08T09:21:57.184Z,6.65
2022-08-08T09:22:58.541Z,6.10
2022-08-08T09:25:11.195Z,6.13
2022-08-08T09:27:21.139Z,6.05
2022-08-08T09:29:32.752Z,7.00
2022-08-08T09:31:57.091Z,6.15
2022-08-08T09:34:30.508Z,6.28
2022-08-08T09:36:40.448Z,5.95
2022-08-08T09:39:15.402Z,6.53
2022-08-08T09:42:15.010Z,6.15
2022-08-08T09:44:13.119Z,6.05
2022-08-08T09:46:30.703Z,7.18
2022-08-08T09:48:42.806Z,6.07
2022-08-08T09:50:56.054Z,6.53
2022-08-08T09:53:14.387Z,5.68
2022-08-08T09:55:51.367Z,6.03
2022-08-08T09:58:06.642Z,6.38
2022-08-08T10:00:37.393Z,6.40
2022-08-08T10:02:44.935Z,5.75
2022-08-08T10:04:50.112Z,5.53
2022-08-08T10:06:58.848Z,6.13
2022-08-08T10:09:05.968Z,6.03
2022-08-08T10:12:28.027Z,5.63
2022-08-08T10:13:41.189Z,6.20
2022-08-08T10:16:00.873Z,5.68
2022-08-08T10:18:11.736Z,5.78
2022-08-08T10:20:18.354Z,6.25
2022-08-08T10:22:25.969Z,6.90
2022-08-08T10:24:35.220Z,5.72
2022-08-08T10:26:57.494Z,6.20
2022-08-08T10:29:07.326Z,6.20
2022-08-08T10:31:47.293Z,5.97
2022-08-08T10:34:18.778Z,6.53
2022-08-08T10:36:25.036Z,5.70
2022-08-08T10:38:40.465Z,5.45
2022-08-08T10:42:55.869Z,5.90
2022-08-08T10:45:08.988Z,6.28
2022-08-08T10:47:16.280Z,6.18
2022-08-08T10:50:01.491Z,5.85
2022-08-08T10:52:00.730Z,5.97
2022-08-08T10:54:07.214Z,5.60
2022-08-08T10:56:27.781Z,5.60
2022-08-08T10:58:36.870Z,5.85
2022-08-08T11:01:01.816Z,5.70
2022-08-08T11:03:16.917Z,5.88
2022-08-08T11:05:22.979Z,6.25
2022-08-08T11:08:30.562Z,6.20
2022-08-08T11:09:54.575Z,5.38
2022-08-08T11:12:12.689Z,6.03
2022-08-08T11:14:20.815Z,6.05
2022-08-08T11:16:34.651Z,6.47
2022-08-08T11:18:39.957Z,5.82
2022-08-08T11:20:52.374Z,5.80
2022-08-08T11:22:59.235Z,6.13
2022-08-08T11:25:13.878Z,5.50
2022-08-08T11:27:23.328Z,5.60
2022-08-08T11:29:50.971Z,5.15
2022-08-08T11:31:56.163Z,5.43
2022-08-08T11:34:24.117Z,6.03
2022-08-08T11:36:29.571Z,5.80
2022-08-08T11:38:43.792Z,6.20
2022-08-08T11:40:58.773Z,5.35
2022-08-08T11:43:05.252Z,6.00
2022-08-08T11:45:11.009Z,6.90
2022-08-08T11:47:24.440Z,5.90
2022-08-08T11:49:44.956Z,5.93
2022-08-08T11:51:54.723Z,5.97
2022-08-08T11:54:01.986Z,5.55
2022-08-08T11:56:07.248Z,6.18
2022-08-08T11:58:15.184Z,5.63
2022-08-08T12:00:20.869Z,5.63
2022-08-08T12:02:32.766Z,5.35
2022-08-08T12:04:39.371Z,5.47
2022-08-08T12:06:44.762Z,5.40
2022-08-08T12:08:53.015Z,5.60
2022-08-08T12:11:02.456Z,5.35
2022-08-08T12:13:10.102Z,5.65
2022-08-08T12:15:27.757Z,5.43
2022-08-08T12:17:36.765Z,5.80
2022-08-08T12:19:51.625Z,6.10
2022-08-08T12:22:09.396Z,6.32
2022-08-08T12:24:20.664Z,5.50
2022-08-08T12:26:41.552Z,5.63
2022-08-08T12:28:56.927Z,5.57
2022-08-08T12:31:08.783Z,6.03
2022-08-08T12:33:20.654Z,5.57
2022-08-08T12:35:25.350Z,6.32
2022-08-08T12:37:40.985Z,5.78
2022-08-08T12:40:00.783Z,5.95
2022-08-08T12:42:08.547Z,6.18
2022-08-08T12:44:30.131Z,5.38
2022-08-08T12:46:38.686Z,5.32
2022-08-08T12:49:21.897Z,5.85
2022-08-08T12:51:21.907Z,6.00
2022-08-08T12:53:30.061Z,5.40
2022-08-08T12:56:08.500Z,5.25
2022-08-08T12:58:19.613Z,5.13
2022-08-08T13:00:34.004Z,6.65
2022-08-08T13:02:51.371Z,6.22
2022-08-08T13:04:59.316Z,6.00
2022-08-08T13:07:05.822Z,6.18
2022-08-08T13:09:10.749Z,6.05
2022-08-08T13:11:23.395Z,6.03
2022-08-08T13:13:37.153Z,6.07
2022-08-08T13:15:42.177Z,5.47
2022-08-08T13:18:11.046Z,5.50
2022-08-08T13:20:18.750Z,4.88
2022-08-08T13:22:24.655Z,5.05
2022-08-08T13:24:42.200Z,4.95
2022-08-08T13:27:00.559Z,5.10
2022-08-08T13:29:11.787Z,5.10
2022-08-08T13:31:17.123Z,5.10
2022-08-08T13:33:23.521Z,4.88
2022-08-08T13:35:38.996Z,4.63
2022-08-08T13:38:04.633Z,5.30
2022-08-08T13:40:17.827Z,4.90
2022-08-08T13:44:35.804Z,5.15
2022-08-08T13:46:54.940Z,5.68
2022-08-08T13:49:12.040Z,4.50
2022-08-08T13:51:37.721Z,4.68
2022-08-08T13:54:00.038Z,5.10
2022-08-08T13:56:11.194Z,5.03
2022-08-08T13:58:20.586Z,4.22
2022-08-08T14:02:32.691Z,4.88
2022-08-08T14:04:52.965Z,5.22
2022-08-08T14:07:00.649Z,4.57
2022-08-08T14:09:25.152Z,4.93
2022-08-08T14:11:36.172Z,5.15
2022-08-08T14:14:00.144Z,4.45
2022-08-08T14:16:15.809Z,5.07
2022-08-08T14:18:36.772Z,4.90
2022-08-08T14:21:02.441Z,4.75
2022-08-08T14:23:10.179Z,4.43
2022-08-08T14:25:25.053Z,4.75
2022-08-08T14:27:34.155Z,4.30
2022-08-08T14:29:40.158Z,4.10
2022-08-08T14:32:08.775Z,4.25
2022-08-08T14:34:19.451Z,4.15
2022-08-08T14:36:36.585Z,4.32
2022-08-08T14:38:52.699Z,4.30
2022-08-08T14:41:13.183Z,4.45
2022-08-08T14:44:02.766Z,5.28
2022-08-08T14:46:02.868Z,4.50
2022-08-08T14:48:10.485Z,4.88
2022-08-08T14:50:37.602Z,4.60
2022-08-08T14:52:57.304Z,4.78
2022-08-08T14:55:01.853Z,5.00
2022-08-08T14:57:08.023Z,4.90
2022-08-08T14:59:31.308Z,4.80
2022-08-08T15:01:41.169Z,4.40
2022-08-08T15:03:53.678Z,4.90
2022-08-08T15:06:10.737Z,4.40
2022-08-08T15:08:33.387Z,4.55
2022-08-08T15:10:40.691Z,4.32
2022-08-08T15:12:49.371Z,4.75
2022-08-08T15:14:53.629Z,4.68
2022-08-08T15:16:58.129Z,4.40
2022-08-08T15:19:02.512Z,4.18
2022-08-08T15:21:08.358Z,4.43
2022-08-08T15:23:14.845Z,4.20
2022-08-08T15:25:29.306Z,4.15
2022-08-08T15:28:04.816Z,5.07
2022-08-08T15:29:58.317Z,4.32
2022-08-08T15:32:20.268Z,5.30
2022-08-08T15:34:31.862Z,4.00
2022-08-08T15:36:37.338Z,4.05
2022-08-08T15:38:49.751Z,4.30
2022-08-08T15:40:56.562Z,4.18
2022-08-08T15:43:00.995Z,4.60
2022-08-08T15:45:22.992Z,4.05
2022-08-08T15:47:34.397Z,4.45
2022-08-08T15:49:41.263Z,4.32
2022-08-08T15:51:45.677Z,4.53
2022-08-08T15:53:50.565Z,4.03
2022-08-08T15:55:56.611Z,4.45
2022-08-08T15:58:03.537Z,4.72
2022-08-08T16:00:27.316Z,4.55
2022-08-08T16:02:33.912Z,4.78
2022-08-08T16:04:39.291Z,4.75
2022-08-08T16:06:47.208Z,4.55
2022-08-08T16:09:02.108Z,4.70
2022-08-08T16:13:14.781Z,4.40
2022-08-08T16:13:46.497Z,4.50
2022-08-08T16:15:57.241Z,4.65
2022-08-08T16:18:12.159Z,4.20
2022-08-08T16:20:16.943Z,4.68
2022-08-08T16:22:29.964Z,4.40
2022-08-08T16:24:36.023Z,4.68
2022-08-08T16:26:43.897Z,4.75
2022-08-08T16:28:50.418Z,4.78
2022-08-08T16:30:54.941Z,5.07
2022-08-08T16:32:59.478Z,4.63
2022-08-08T16:35:06.977Z,5.10
2022-08-08T16:37:11.640Z,4.93
2022-08-08T16:39:48.961Z,4.80
2022-08-08T16:41:50.354Z,4.55
2022-08-08T16:43:57.685Z,4.28
2022-08-08T16:46:43.171Z,5.78
2022-08-08T16:48:32.317Z,13.65
2022-08-08T16:50:41.388Z,13.70
2022-08-08T16:55:00.447Z,8.98
2022-08-08T16:55:34.196Z,6.25
2022-08-08T16:58:14.303Z,5.20
2022-08-08T17:00:08.767Z,5.15
2022-08-08T17:02:38.032Z,6.22
2022-08-08T17:04:40.196Z,5.43
2022-08-08T17:06:44.721Z,6.10
2022-08-08T17:08:49.038Z,5.00
2022-08-08T17:10:59.450Z,5.47
2022-08-08T17:13:16.949Z,6.22
2022-08-08T17:15:23.977Z,6.20
2022-08-08T17:18:01.183Z,5.90
2022-08-08T17:19:53.140Z,6.13
2022-08-08T17:21:57.505Z,6.05
2022-08-08T17:24:10.711Z,6.18
2022-08-08T17:26:30.500Z,5.90
2022-08-08T17:28:36.301Z,6.05
2022-08-08T17:30:40.857Z,6.00
2022-08-08T17:34:37.358Z,5.18
2022-08-08T17:35:54.191Z,5.53
2022-08-08T17:37:36.646Z,5.80
2022-08-08T17:40:05.067Z,5.85
2022-08-08T17:42:08.248Z,5.75
2022-08-08T17:44:15.962Z,6.15
2022-08-08T17:46:37.376Z,6.38
2022-08-08T17:48:42.220Z,7.38
2022-08-08T17:50:52.314Z,6.88
2022-08-08T17:52:58.055Z,7.32
2022-08-08T17:55:05.453Z,6.97
2022-08-08T17:57:16.667Z,7.35
2022-08-08T17:59:30.473Z,6.68
2022-08-08T18:01:56.342Z,7.63
2022-08-08T18:04:00.740Z,6.95
2022-08-08T18:06:19.917Z,6.95
2022-08-08T18:08:41.635Z,6.68
2022-08-08T18:10:48.724Z,6.82
2022-08-08T18:12:53.264Z,6.25
2022-08-08T18:14:59.279Z,6.47
2022-08-08T18:17:03.542Z,6.72
2022-08-08T18:19:22.493Z,6.10
2022-08-08T18:21:59.071Z,5.80
2022-08-08T18:23:56.087Z,5.45
2022-08-08T18:26:01.565Z,5.88
2022-08-08T18:28:12.932Z,6.13
2022-08-08T18:30:21.302Z,5.57
2022-08-08T18:32:26.356Z,6.30
2022-08-08T18:34:31.164Z,5.63
2022-08-08T18:36:37.602Z,5.88
2022-08-08T18:38:43.690Z,6.05
2022-08-08T18:42:58.752Z,6.10
2022-08-08T18:45:09.352Z,6.13
2022-08-08T18:47:33.520Z,5.70
2022-08-08T18:49:54.769Z,7.05
2022-08-08T18:52:02.730Z,5.40
2022-08-08T18:54:13.708Z,6.50
2022-08-08T18:56:34.001Z,6.18
2022-08-08T18:58:39.920Z,5.88
2022-08-08T19:00:46.515Z,5.82
2022-08-08T19:03:04.092Z,6.85
2022-08-08T19:05:13.975Z,6.13
2022-08-08T19:07:18.334Z,6.47
2022-08-08T19:09:23.337Z,5.80
2022-08-08T19:11:48.099Z,6.03
2022-08-08T19:13:57.229Z,6.32
2022-08-08T19:16:02.050Z,6.72
2022-08-08T19:18:33.134Z,6.45
2022-08-08T19:20:36.901Z,6.43
2022-08-08T19:22:44.524Z,6.38
2022-08-08T19:25:03.104Z,6.30
2022-08-08T19:27:15.048Z,7.35
2022-08-08T19:29:22.159Z,6.07
2022-08-08T19:31:31.052Z,7.43
2022-08-08T19:33:52.349Z,6.30
2022-08-08T19:36:08.396Z,6.70
2022-08-08T19:38:17.365Z,6.55
2022-08-08T19:40:31.172Z,6.47
2022-08-08T19:42:37.579Z,6.68
2022-08-08T19:44:42.914Z,7.03
2022-08-08T19:46:50.432Z,6.43
2022-08-08T19:48:57.547Z,6.30
2022-08-08T19:51:01.841Z,7.18
2022-08-08T19:53:21.989Z,6.88
2022-08-08T19:55:34.064Z,6.50
2022-08-08T19:57:38.951Z,7.20
2022-08-08T19:59:44.321Z,7.25
2022-08-08T20:02:00.936Z,7.32
2022-08-08T20:04:08.947Z,6.10
2022-08-08T20:06:16.822Z,7.20
2022-08-08T20:08:28.397Z,7.65
2022-08-08T20:10:44.542Z,6.45
2022-08-08T20:13:11.197Z,6.72
2022-08-08T20:15:16.939Z,7.75
2022-08-08T20:17:26.800Z,6.75
2022-08-08T20:19:43.321Z,7.20
2022-08-08T20:21:49.013Z,6.72
2022-08-08T20:23:57.546Z,7.03
2022-08-08T20:26:03.082Z,7.60
2022-08-08T20:28:17.663Z,6.45
2022-08-08T20:30:52.780Z,6.68
2022-08-08T20:32:49.699Z,6.65
2022-08-08T20:35:01.405Z,7.70
2022-08-08T20:37:09.731Z,6.68
2022-08-08T20:39:15.123Z,7.28
2022-08-08T20:41:19.568Z,7.40
2022-08-08T20:43:44.183Z,6.80
2022-08-08T20:45:57.484Z,8.15
2022-08-08T20:48:02.814Z,7.40
2022-08-08T20:50:10.110Z,7.88
2022-08-08T20:52:15.415Z,7.57
2022-08-08T20:54:28.114Z,6.80
2022-08-08T20:56:35.723Z,8.05
2022-08-08T20:58:47.712Z,7.53
2022-08-08T21:00:52.608Z,7.10
2022-08-08T21:02:58.530Z,7.88
2022-08-08T21:05:03.210Z,7.72
2022-08-08T21:07:15.869Z,7.13
2022-08-08T21:09:21.587Z,8.18
2022-08-08T21:11:51.408Z,7.95
2022-08-08T21:13:52.554Z,7.43
2022-08-08T21:16:05.752Z,7.00
2022-08-08T21:18:21.352Z,7.15
2022-08-08T21:20:34.620Z,6.88
2022-08-08T21:22:41.258Z,6.97
2022-08-08T21:24:52.529Z,6.82
2022-08-08T21:26:58.946Z,6.50
2022-08-08T21:29:03.828Z,6.57
2022-08-08T21:31:22.086Z,6.82
2022-08-08T21:33:30.447Z,6.28
2022-08-08T21:36:16.453Z,6.55
2022-08-08T21:38:04.136Z,6.95
2022-08-08T21:40:12.619Z,6.88
2022-08-08T21:42:17.304Z,6.38
2022-08-08T21:44:22.207Z,7.28
2022-08-08T21:48:08.233Z,7.30
2022-08-08T21:48:52.072Z,6.93
2022-08-08T21:50:58.144Z,7.20
2022-08-08T21:54:33.038Z,7.70
2022-08-08T21:56:19.447Z,7.88
2022-08-08T21:58:04.172Z,8.45
2022-08-08T22:00:18.036Z,7.45
2022-08-08T22:02:30.737Z,7.15
2022-08-08T22:04:35.697Z,7.30
2022-08-08T22:06:41.873Z,7.68
2022-08-08T22:08:47.765Z,7.45
2022-08-08T22:10:55.463Z,7.40
2022-08-08T22:13:18.385Z,7.22
2022-08-08T22:15:24.631Z,8.05
2022-08-08T22:17:32.439Z,7.78
2022-08-08T22:20:12.009Z,8.23
2022-08-08T22:22:14.517Z,7.68
2022-08-08T22:24:23.839Z,8.13
2022-08-08T22:26:33.270Z,7.65
2022-08-08T22:29:04.528Z,7.88
2022-08-08T22:31:18.912Z,7.63
2022-08-08T22:34:13.509Z,7.35
2022-08-08T22:36:04.173Z,7.70
2022-08-08T22:38:10.210Z,7.97
2022-08-08T22:40:21.868Z,8.27
2022-08-08T22:42:31.351Z,7.50
2022-08-08T22:44:36.467Z,8.50
2022-08-08T22:46:40.976Z,7.78
2022-08-08T22:48:50.460Z,7.85
2022-08-08T22:50:59.065Z,8.10
2022-08-08T22:54:29.151Z,8.30
2022-08-08T22:55:57.639Z,8.48
2022-08-08T22:58:01.914Z,7.60
2022-08-08T23:00:10.151Z,8.10
2022-08-08T23:02:19.544Z,7.77
2022-08-08T23:04:32.086Z,8.27
2022-08-08T23:06:36.998Z,7.88
2022-08-08T23:08:55.851Z,8.40
2022-08-08T23:11:05.818Z,7.70
2022-08-08T23:13:10.832Z,7.53
2022-08-08T23:16:38.868Z,7.97
2022-08-08T23:17:53.974Z,7.65
2022-08-08T23:22:10.610Z,7.97
2022-08-08T23:24:22.933Z,7.50
2022-08-08T23:26:29.991Z,7.80
2022-08-08T23:28:34.519Z,7.88
2022-08-08T23:30:39.008Z,8.38
2022-08-08T23:32:45.324Z,7.35
2022-08-08T23:34:59.000Z,7.55
2022-08-08T23:37:04.961Z,8.95
2022-08-08T23:39:10.144Z,8.02
2022-08-08T23:41:22.920Z,7.90
2022-08-08T23:43:45.333Z,8.52
2022-08-08T23:49:02.528Z,8.00
2022-08-08T23:49:07.327Z,7.68
2022-08-08T23:50:40.985Z,8.13
2022-08-08T23:52:50.535Z,8.27
2022-08-08T23:55:07.266Z,8.65
2022-08-08T23:57:26.784Z,8.02
2022-08-08T23:59:35.976Z,7.80
